Time;durP1;ratioP1;P1;durP2;ratioP2;P2;SDS_P1;SDS_P2;PMS_P1;PMS_P2;Temp;Humidity;BMP_temperature;BMP_pressure;BME280_temperature;BME280_humidity;BME280_pressure;Samples;Min_cycle;Max_cycle;Signal;HPM_P1;HPM_P2
2022/12/31 00:00:26;;;;;;;0.40;0.20;;;;;;;7.63;67.33;94788.66;5003016;28;20500;-70
2022/12/31 00:02:52;;;;;;;0.40;0.40;;;;;;;7.62;68.03;94784.34;5003129;28;20131;-70
2022/12/31 00:05:17;;;;;;;1.50;0.32;;;;;;;7.14;70.93;94771.31;5008439;28;20137;-70
2022/12/31 00:07:43;;;;;;;0.45;0.45;;;;;;;6.91;74.58;94779.28;5004305;28;20055;-69
2022/12/31 00:10:08;;;;;;;0.30;0.30;;;;;;;7.37;70.91;94778.44;5002385;28;20081;-69
2022/12/31 00:12:34;;;;;;;1.90;0.50;;;;;;;7.59;68.63;94776.78;5004872;28;20077;-70
2022/12/31 00:14:59;;;;;;;1.90;0.70;;;;;;;7.15;70.86;94773.78;5007404;28;20084;-69
2022/12/31 00:17:25;;;;;;;0.57;0.30;;;;;;;7.70;69.34;94787.91;5002950;28;20099;-70
2022/12/31 00:19:50;;;;;;;0.30;0.30;;;;;;;6.89;73.37;94774.97;5002638;28;20534;-69
2022/12/31 00:22:15;;;;;;;0.68;0.68;;;;;;;6.44;74.72;94772.06;5005101;28;20083;-69
2022/12/31 00:24:41;;;;;;;0.30;0.30;;;;;;;7.58;70.44;94780.41;5001580;28;20063;-70
2022/12/31 00:27:06;;;;;;;0.60;0.55;;;;;;;7.64;70.66;94762.97;5002608;28;20091;-69
2022/12/31 00:29:31;;;;;;;0.95;0.40;;;;;;;7.33;72.62;94782.44;5003428;28;20103;-69
2022/12/31 00:31:57;;;;;;;0.63;0.63;;;;;;;7.81;70.15;94757.53;5006706;28;20125;-69
2022/12/31 00:34:22;;;;;;;1.10;0.50;;;;;;;7.77;69.71;94765.84;5005953;28;20081;-69
2022/12/31 00:36:48;;;;;;;0.47;0.30;;;;;;;7.14;72.13;94773.97;5009597;28;20515;-69
2022/12/31 00:39:13;;;;;;;0.28;0.28;;;;;;;6.81;75.51;94782.16;5009921;28;20427;-69
2022/12/31 00:41:39;;;;;;;0.70;0.60;;;;;;;6.75;76.55;94762.50;5008929;28;20516;-69
2022/12/31 00:44:04;;;;;;;0.20;0.20;;;;;;;6.72;74.25;94768.13;5001988;28;20057;-69
2022/12/31 00:46:30;;;;;;;0.57;0.57;;;;;;;7.73;70.82;94759.25;5007378;28;20066;-69
2022/12/31 00:48:56;;;;;;;2.80;2.30;;;;;;;7.16;72.36;94827.56;5000958;28;20050;-69
2022/12/31 00:51:27;;;;;;;1.45;0.40;;;;;;;7.25;72.38;94764.81;5004302;28;20054;-69
2022/12/31 00:53:54;;;;;;;0.22;0.22;;;;;;;7.22;72.79;94758.03;5001724;28;20591;-69
2022/12/31 00:56:20;;;;;;;0.55;0.40;;;;;;;7.41;70.36;94762.00;5004989;28;20433;-69
2022/12/31 00:58:46;;;;;;;0.57;0.40;;;;;;;7.87;69.55;94772.72;5006369;28;20142;-69
2022/12/31 01:01:24;;;;;;;0.70;0.35;;;;;;;7.44;70.17;94805.84;5003769;28;20072;-69
2022/12/31 01:03:51;;;;;;;1.00;0.25;;;;;;;7.11;72.20;94780.44;5004034;28;20067;-69
2022/12/31 01:06:16;;;;;;;0.43;0.30;;;;;;;7.42;70.36;94786.69;5000563;28;20081;-69
2022/12/31 01:08:42;;;;;;;0.85;0.30;;;;;;;7.82;69.60;94789.13;5004551;28;20060;-69
2022/12/31 01:11:18;;;;;;;0.35;0.35;;;;;;;7.46;70.63;94790.63;5008884;28;20515;-69
2022/12/31 01:13:56;;;;;;;1.35;0.30;;;;;;;7.70;69.97;94796.69;5006045;28;20091;-70
2022/12/31 01:16:42;;;;;;;0.40;0.40;;;;;;;7.89;69.71;94776.81;5001858;28;20107;-69
2022/12/31 01:19:12;;;;;;;1.10;0.98;;;;;;;8.72;65.47;94766.22;5003331;28;20581;-69
2022/12/31 01:21:38;;;;;;;1.58;0.40;;;;;;;8.55;66.29;94772.59;5001314;28;20070;-69
2022/12/31 01:24:04;;;;;;;0.30;0.30;;;;;;;8.22;66.49;94775.63;5002774;28;20092;-69
2022/12/31 01:26:29;;;;;;;0.30;0.30;;;;;;;7.19;70.49;94774.28;4999717;28;20074;-69
2022/12/31 01:28:55;;;;;;;1.10;0.75;;;;;;;8.92;64.34;94779.72;5002057;28;20061;-69
2022/12/31 01:31:21;;;;;;;1.45;0.52;;;;;;;8.40;66.78;94787.72;5004960;28;20631;-69
2022/12/31 01:33:46;;;;;;;0.55;0.47;;;;;;;7.94;67.86;94789.53;5003622;28;20815;-69
2022/12/31 01:36:20;;;;;;;0.52;0.52;;;;;;;8.09;68.23;94791.38;5009295;28;20138;-69
2022/12/31 01:38:45;;;;;;;1.52;1.02;;;;;;;7.80;67.63;94788.50;5011354;28;20256;-69
2022/12/31 01:41:18;;;;;;;0.60;0.55;;;;;;;8.51;66.02;94789.88;5012155;28;20064;-69
2022/12/31 01:43:46;;;;;;;0.77;0.57;;;;;;;8.25;67.85;94791.19;5003366;28;20097;-69
2022/12/31 01:46:15;;;;;;;1.02;0.90;;;;;;;8.10;66.98;94798.31;5008732;28;20075;-69
2022/12/31 01:48:48;;;;;;;0.50;0.50;;;;;;;8.53;66.00;94795.81;5008646;28;20037;-69
2022/12/31 01:51:13;;;;;;;1.77;0.30;;;;;;;8.07;67.08;94811.94;5011648;28;20079;-69
2022/12/31 01:53:39;;;;;;;0.10;0.10;;;;;;;8.18;66.67;94808.81;5013268;28;20511;-69
2022/12/31 01:56:04;;;;;;;0.32;0.10;;;;;;;8.03;68.38;94800.88;5009605;28;20051;-69
2022/12/31 01:58:34;;;;;;;2.08;1.08;;;;;;;8.02;67.32;94796.56;5011719;28;20076;-69
2022/12/31 02:01:00;;;;;;;1.13;0.28;;;;;;;7.38;70.06;94811.88;4993064;28;20464;-67
2022/12/31 02:03:25;;;;;;;4.00;2.78;;;;;;;6.75;72.53;94792.44;4992282;28;20054;-66
2022/12/31 02:05:54;;;;;;;0.10;0.10;;;;;;;7.83;69.31;94793.47;5006301;28;20081;-67
2022/12/31 02:08:19;;;;;;;0.10;0.10;;;;;;;8.61;65.98;94781.66;5005765;28;20063;-67
2022/12/31 02:10:45;;;;;;;0.70;0.20;;;;;;;7.68;68.69;94801.34;5008591;28;20076;-67
2022/12/31 02:13:10;;;;;;;0.10;0.10;;;;;;;7.69;68.55;94796.88;5012271;28;20054;-67
2022/12/31 02:15:57;;;;;;;0.32;0.20;;;;;;;6.37;74.18;94816.06;5009781;28;20034;-67
2022/12/31 02:18:31;;;;;;;0.82;0.15;;;;;;;7.49;71.35;94806.16;5013875;28;20440;-67
2022/12/31 02:21:33;;;;;;;1.77;0.38;;;;;;;7.04;72.06;94808.59;5005832;28;20518;-67
2022/12/31 02:24:29;;;;;;;0.30;0.30;;;;;;;7.17;72.27;94812.53;5009158;28;20408;-67
2022/12/31 02:27:14;;;;;;;0.20;0.20;;;;;;;7.51;70.38;94814.72;5013228;28;20100;-67
2022/12/31 02:29:56;;;;;;;0.75;0.10;;;;;;;7.45;71.09;94826.03;5010066;28;20081;-67
2022/12/31 02:32:42;;;;;;;1.02;0.20;;;;;;;7.28;70.88;94834.09;5010360;28;20113;-67
2022/12/31 02:35:56;;;;;;;0.57;0.30;;;;;;;7.86;67.99;94824.06;5010836;28;20693;-67
2022/12/31 02:38:33;;;;;;;0.20;0.20;;;;;;;7.41;70.15;94830.03;5010539;28;20164;-68
2022/12/31 02:40:59;;;;;;;0.38;0.30;;;;;;;7.18;70.67;94833.53;5009244;28;20126;-67
2022/12/31 02:43:24;;;;;;;0.40;0.30;;;;;;;7.05;71.50;94806.81;5007303;28;20426;-67
2022/12/31 02:46:03;;;;;;;0.90;0.30;;;;;;;7.66;69.13;94804.16;5005744;28;20075;-67
2022/12/31 02:48:40;;;;;;;0.15;0.15;;;;;;;7.20;70.15;94809.50;5005518;28;20110;-68
2022/12/31 02:51:17;;;;;;;0.20;0.20;;;;;;;6.83;71.89;94838.38;4999184;28;20565;-67
2022/12/31 02:54:21;;;;;;;0.32;0.22;;;;;;;6.91;72.24;94867.44;5005872;28;20332;-67
2022/12/31 02:57:05;;;;;;;0.20;0.20;;;;;;;6.97;72.06;94797.91;5004550;28;20564;-67
2022/12/31 03:02:18;;;;;;;0.40;0.15;;;;;;;7.26;71.02;94846.72;5006826;28;20088;-68
2022/12/31 03:04:54;;;;;;;0.20;0.20;;;;;;;6.75;73.34;94808.31;4989662;28;20108;-68
2022/12/31 03:07:24;;;;;;;0.30;0.30;;;;;;;6.96;73.69;94803.38;5006073;28;20094;-68
2022/12/31 03:09:49;;;;;;;0.50;0.28;;;;;;;5.98;76.58;94829.03;5005933;28;20120;-67
2022/12/31 03:14:59;;;;;;;0.60;0.60;;;;;;;6.23;76.37;94836.91;5002987;28;20446;-67
2022/12/31 03:17:24;;;;;;;0.35;0.28;;;;;;;6.31;76.10;94838.72;5005369;28;20090;-67
2022/12/31 03:22:36;;;;;;;0.47;0.47;;;;;;;6.29;74.77;94851.25;5005841;28;20097;-67
2022/12/31 03:27:54;;;;;;;0.90;0.30;;;;;;;7.02;72.67;94830.00;5011406;28;20067;-67
2022/12/31 03:30:20;;;;;;;0.68;0.40;;;;;;;6.53;73.81;94832.88;5009349;28;20624;-68
2022/12/31 03:32:46;;;;;;;0.30;0.30;;;;;;;6.07;76.55;94864.22;5005383;28;20059;-67
2022/12/31 03:35:12;;;;;;;1.30;0.57;;;;;;;6.94;73.44;94848.53;5010172;28;20203;-68
2022/12/31 03:37:38;;;;;;;0.22;0.20;;;;;;;6.70;73.68;94842.38;5010966;28;20084;-67
2022/12/31 03:40:05;;;;;;;1.17;0.60;;;;;;;6.42;74.37;94840.16;5007712;28;20053;-67
2022/12/31 03:42:31;;;;;;;0.52;0.52;;;;;;;6.75;73.79;94845.34;5004584;28;20143;-67
2022/12/31 03:44:56;;;;;;;2.65;0.60;;;;;;;6.63;75.09;94852.00;4998895;28;20272;-67
2022/12/31 03:47:21;;;;;;;0.65;0.45;;;;;;;6.50;74.43;94842.78;5001955;28;20046;-66
2022/12/31 03:49:47;;;;;;;0.50;0.50;;;;;;;6.94;72.73;94850.38;5005250;28;20090;-67
2022/12/31 03:52:12;;;;;;;0.70;0.50;;;;;;;6.62;74.10;94842.41;5003303;28;20090;-66
2022/12/31 03:54:37;;;;;;;0.68;0.25;;;;;;;6.99;72.37;94856.78;4998877;28;20078;-66
2022/12/31 03:57:03;;;;;;;0.40;0.40;;;;;;;7.52;70.59;94845.50;5000163;28;20490;-67
2022/12/31 03:59:28;;;;;;;0.52;0.40;;;;;;;7.40;70.99;94853.06;5008871;28;20059;-67
2022/12/31 04:01:54;;;;;;;0.50;0.50;;;;;;;6.83;73.03;94865.63;5000262;28;20096;-66
2022/12/31 04:04:19;;;;;;;0.20;0.20;;;;;;;6.97;72.32;94845.53;5004442;28;20345;-67
2022/12/31 04:06:45;;;;;;;2.08;0.40;;;;;;;6.37;75.10;94851.22;5002782;28;20168;-66
2022/12/31 04:09:10;;;;;;;0.32;0.30;;;;;;;6.45;75.36;94874.19;5000317;28;20050;-66
2022/12/31 04:11:35;;;;;;;0.85;0.40;;;;;;;6.71;75.15;94873.16;5003379;28;20440;-67
2022/12/31 04:14:01;;;;;;;0.45;0.20;;;;;;;7.16;73.81;94893.75;4999737;28;20079;-67
2022/12/31 04:16:26;;;;;;;1.58;0.20;;;;;;;6.58;75.67;94876.31;4997929;28;20074;-66
2022/12/31 04:18:52;;;;;;;0.60;0.60;;;;;;;6.72;74.90;94858.91;5002548;28;20072;-67
2022/12/31 04:21:17;;;;;;;0.93;0.25;;;;;;;6.50;75.38;94863.13;5004794;28;20705;-66
2022/12/31 04:23:42;;;;;;;0.30;0.30;;;;;;;6.52;75.30;94870.91;5001221;28;20048;-66
2022/12/31 04:26:08;;;;;;;0.32;0.32;;;;;;;6.63;75.41;94850.19;4998612;28;20353;-67
2022/12/31 04:28:33;;;;;;;0.70;0.50;;;;;;;6.92;73.56;94862.94;5002528;28;20052;-66
2022/12/31 04:30:58;;;;;;;0.85;0.60;;;;;;;6.41;74.62;94875.53;4997532;28;20074;-67
2022/12/31 04:33:24;;;;;;;0.85;0.45;;;;;;;6.68;74.43;94859.41;5004395;28;20087;-66
2022/12/31 04:35:49;;;;;;;0.32;0.30;;;;;;;6.75;72.99;94863.88;5002806;28;20566;-67
2022/12/31 04:38:15;;;;;;;0.95;0.63;;;;;;;6.92;72.73;94847.91;5007173;28;20076;-67
2022/12/31 04:41:15;;;;;;;0.85;0.40;;;;;;;7.32;71.02;94879.59;5001851;28;20050;-66
2022/12/31 04:43:25;;;;;;;1.45;0.40;;;;;;;6.58;73.78;94843.75;5000332;28;20387;-67
2022/12/31 04:45:51;;;;;;;0.75;0.70;;;;;;;7.52;70.12;94887.88;5003950;28;20722;-67
2022/12/31 04:48:16;;;;;;;1.98;0.60;;;;;;;7.26;71.20;94867.06;5004469;28;20062;-67
2022/12/31 04:50:41;;;;;;;1.45;1.05;;;;;;;7.82;68.81;94876.59;5000653;28;20075;-67
2022/12/31 04:53:07;;;;;;;0.47;0.47;;;;;;;7.95;68.25;94862.75;5005947;28;20113;-66
2022/12/31 04:55:32;;;;;;;2.53;0.88;;;;;;;7.37;70.80;94871.09;5001351;28;20053;-67
2022/12/31 04:57:58;;;;;;;1.60;0.98;;;;;;;7.76;69.03;94862.19;4998956;28;20104;-67
2022/12/31 05:00:23;;;;;;;0.43;0.40;;;;;;;6.94;71.66;94875.00;5000275;28;20480;-67
2022/12/31 05:02:48;;;;;;;1.95;0.43;;;;;;;6.96;72.71;94888.06;4998886;28;20117;-66
2022/12/31 05:05:14;;;;;;;0.55;0.55;;;;;;;6.83;72.52;94880.69;4999405;28;20340;-67
2022/12/31 05:07:39;;;;;;;0.63;0.30;;;;;;;7.25;71.22;94871.50;5004477;28;20484;-67
2022/12/31 05:10:05;;;;;;;0.98;0.65;;;;;;;6.71;72.91;94881.09;4996574;28;21572;-67
2022/12/31 05:12:31;;;;;;;0.38;0.38;;;;;;;6.83;73.28;94884.16;5004509;28;20551;-67
2022/12/31 05:14:56;;;;;;;0.88;0.52;;;;;;;6.69;73.57;94869.84;4999321;28;20079;-67
2022/12/31 05:17:21;;;;;;;1.83;0.70;;;;;;;6.70;73.47;94892.63;5004736;28;20083;-67
2022/12/31 05:19:47;;;;;;;1.05;0.63;;;;;;;7.09;72.41;94874.28;4998312;28;20063;-67
2022/12/31 05:22:30;;;;;;;0.63;0.40;;;;;;;6.92;72.98;94905.28;5001425;28;20560;-67
2022/12/31 05:24:59;;;;;;;0.85;0.75;;;;;;;6.49;74.26;94883.47;4997491;28;20663;-66
2022/12/31 05:27:24;;;;;;;;;;;;;;;7.46;70.50;94893.91;5000166;28;20041;-67
2022/12/31 05:29:49;;;;;;;1.02;0.43;;;;;;;7.31;71.31;94891.16;5004027;28;19987;-67
2022/12/31 05:32:15;;;;;;;0.60;0.57;;;;;;;6.96;72.96;94907.41;5000852;28;20065;-67
2022/12/31 05:34:40;;;;;;;3.15;0.80;;;;;;;6.94;72.77;94903.31;5002478;28;20079;-67
2022/12/31 05:37:06;;;;;;;0.70;0.63;;;;;;;7.13;71.97;94897.56;4999730;28;20084;-67
2022/12/31 05:39:31;;;;;;;1.80;0.90;;;;;;;6.99;72.49;94915.03;4999572;28;20118;-67
2022/12/31 05:41:56;;;;;;;3.25;0.70;;;;;;;7.28;71.42;94912.72;5000950;28;20085;-67
2022/12/31 05:44:22;;;;;;;1.75;0.80;;;;;;;7.37;71.33;94916.13;4996469;28;20055;-67
2022/12/31 05:46:47;;;;;;;0.98;0.55;;;;;;;7.63;70.23;94914.97;4998887;28;20518;-67
2022/12/31 05:49:13;;;;;;;1.25;0.80;;;;;;;7.12;72.05;94937.47;5001723;28;20085;-67
2022/12/31 05:51:38;;;;;;;0.73;0.73;;;;;;;7.21;71.58;94928.47;4994357;28;20072;-66
2022/12/31 05:54:03;;;;;;;0.85;0.75;;;;;;;7.30;71.29;94913.38;4999021;28;20082;-67
2022/12/31 05:56:29;;;;;;;1.63;0.90;;;;;;;6.93;72.36;94914.88;4996641;28;20053;-67
2022/12/31 05:58:54;;;;;;;3.25;0.60;;;;;;;7.33;70.92;94907.72;5000033;28;20079;-66
2022/12/31 06:01:20;;;;;;;1.60;0.80;;;;;;;7.45;70.92;94929.31;4996551;28;20076;-68
2022/12/31 06:03:45;;;;;;;1.80;0.77;;;;;;;7.66;69.62;94907.50;4999530;28;20051;-66
2022/12/31 06:06:10;;;;;;;1.58;0.80;;;;;;;7.36;71.09;94920.63;4999146;28;20105;-67
2022/12/31 06:08:36;;;;;;;3.38;1.02;;;;;;;7.04;71.91;94906.53;4997054;28;20176;-66
2022/12/31 06:11:01;;;;;;;0.95;0.47;;;;;;;7.27;71.42;94933.06;4995662;28;20079;-67
2022/12/31 06:13:27;;;;;;;3.72;1.00;;;;;;;7.25;71.66;94924.47;5000415;28;20087;-67
2022/12/31 06:15:52;;;;;;;3.67;1.20;;;;;;;6.98;72.59;94928.41;5000136;28;20100;-67
2022/12/31 06:18:18;;;;;;;1.65;0.80;;;;;;;7.23;71.38;94926.47;4997219;28;20449;-68
2022/12/31 06:20:43;;;;;;;2.97;1.00;;;;;;;7.28;71.43;94934.72;4999075;28;20059;-67
2022/12/31 06:23:08;;;;;;;5.60;1.13;;;;;;;8.06;68.67;94933.03;5000226;28;20154;-68
2022/12/31 06:25:34;;;;;;;2.13;0.90;;;;;;;7.13;71.91;94953.16;4997121;28;20067;-67
2022/12/31 06:27:59;;;;;;;2.55;0.90;;;;;;;7.69;69.82;94935.47;5001875;28;20399;-67
2022/12/31 06:30:25;;;;;;;1.70;1.02;;;;;;;7.51;70.33;94954.28;5002777;28;20087;-67
2022/12/31 06:32:50;;;;;;;3.08;0.93;;;;;;;7.71;69.53;94948.53;5004428;28;20062;-68
2022/12/31 06:35:16;;;;;;;3.38;1.20;;;;;;;7.58;70.19;94946.47;5001834;28;20087;-67
2022/12/31 06:37:41;;;;;;;1.55;0.90;;;;;;;7.19;71.01;94958.75;5008118;28;20137;-67
2022/12/31 06:40:07;;;;;;;1.63;0.73;;;;;;;8.05;67.74;94947.31;5002503;28;20062;-67
2022/12/31 06:42:32;;;;;;;1.90;0.90;;;;;;;7.77;68.56;94956.66;5004640;28;20272;-67
2022/12/31 06:44:58;;;;;;;1.70;0.70;;;;;;;7.53;69.56;94968.19;5002682;28;20141;-68
2022/12/31 06:47:23;;;;;;;2.83;1.00;;;;;;;7.72;68.71;94953.66;5004049;28;20334;-68
2022/12/31 06:49:49;;;;;;;3.72;1.13;;;;;;;7.84;68.58;94974.47;5000372;28;20186;-68
2022/12/31 06:52:14;;;;;;;3.50;1.27;;;;;;;7.89;68.28;95030.44;5000518;28;20477;-67
2022/12/31 06:54:40;;;;;;;2.28;0.80;;;;;;;8.11;66.99;94974.94;5004079;28;20086;-68
2022/12/31 06:57:07;;;;;;;0.57;0.57;;;;;;;7.91;67.69;94968.31;5001639;28;20151;-67
2022/12/31 06:59:32;;;;;;;1.60;0.95;;;;;;;8.00;67.54;94978.84;5004441;28;20049;-68
2022/12/31 07:02:13;;;;;;;2.72;1.33;;;;;;;7.68;68.94;94994.75;5004037;28;20074;-67
2022/12/31 07:05:02;;;;;;;1.92;1.50;;;;;;;8.50;65.89;94999.66;5006794;28;20716;-67
2022/12/31 07:07:28;;;;;;;1.70;0.98;;;;;;;7.87;68.30;94996.16;5000756;28;20086;-67
2022/12/31 07:09:59;;;;;;;1.30;1.13;;;;;;;7.56;68.96;95020.81;5001800;28;20091;-67
2022/12/31 07:13:03;;;;;;;4.05;1.05;;;;;;;7.84;68.06;94995.69;5001672;28;20902;-68
2022/12/31 07:15:43;;;;;;;1.95;0.73;;;;;;;8.02;67.13;95001.50;5004792;28;20480;-68
2022/12/31 07:18:17;;;;;;;1.73;1.20;;;;;;;7.52;69.41;94996.50;5000321;28;20525;-67
2022/12/31 07:20:43;;;;;;;3.20;1.20;;;;;;;8.01;67.58;94991.09;5003660;28;20395;-67
2022/12/31 07:23:09;;;;;;;2.78;1.05;;;;;;;8.09;66.35;94990.22;5006137;28;20078;-67
2022/12/31 07:25:34;;;;;;;2.10;1.15;;;;;;;7.81;68.13;94990.72;5002273;28;20096;-67
2022/12/31 07:28:05;;;;;;;1.25;0.93;;;;;;;7.41;68.60;94997.72;5005333;28;20055;-66
2022/12/31 07:30:54;;;;;;;2.15;1.27;;;;;;;7.28;69.45;95010.69;5001500;28;20856;-67
2022/12/31 07:33:49;;;;;;;1.52;1.10;;;;;;;7.94;67.19;94998.94;5005960;28;20085;-67
2022/12/31 07:36:49;;;;;;;1.10;1.00;;;;;;;7.86;66.95;94999.00;5010068;28;20052;-67
2022/12/31 07:39:19;;;;;;;4.82;1.27;;;;;;;7.71;67.46;95020.91;5002263;28;20470;-67
2022/12/31 07:41:52;;;;;;;2.30;1.20;;;;;;;7.65;67.57;95022.41;5004251;28;20592;-67
2022/12/31 07:44:18;;;;;;;2.83;1.13;;;;;;;8.23;65.46;94994.72;5002245;28;20062;-67
2022/12/31 07:46:55;;;;;;;3.10;1.23;;;;;;;8.20;65.61;94997.75;5003823;28;20485;-68
2022/12/31 07:49:22;;;;;;;1.73;0.70;;;;;;;8.18;66.23;94999.75;5011671;28;20586;-67
2022/12/31 07:51:47;;;;;;;2.42;1.10;;;;;;;8.91;63.39;95006.38;5002143;28;20066;-68
2022/12/31 07:54:12;;;;;;;2.85;0.85;;;;;;;8.33;65.08;95015.69;4998152;28;20077;-68
2022/12/31 07:56:38;;;;;;;1.80;0.90;;;;;;;9.03;62.70;95020.88;5000506;28;20055;-67
2022/12/31 07:59:07;;;;;;;2.40;1.10;;;;;;;8.69;63.69;95020.38;5002682;28;20422;-67
2022/12/31 08:01:43;;;;;;;1.42;1.08;;;;;;;8.35;64.68;95034.09;4999460;28;20064;-67
2022/12/31 08:04:34;;;;;;;2.05;1.23;;;;;;;8.58;64.60;95026.09;5002600;28;20044;-67
2022/12/31 08:07:11;;;;;;;3.33;1.00;;;;;;;8.03;65.51;95068.63;4999936;28;20510;-67
2022/12/31 08:09:59;;;;;;;2.63;1.20;;;;;;;7.66;67.45;95037.31;5000222;28;20080;-67
2022/12/31 08:12:25;;;;;;;2.83;1.35;;;;;;;8.23;65.52;95063.66;5006918;28;20155;-68
2022/12/31 08:14:51;;;;;;;2.70;1.20;;;;;;;7.98;65.35;95010.00;4999350;28;20079;-67
2022/12/31 08:17:17;;;;;;;5.15;1.33;;;;;;;8.03;66.00;95021.72;5004920;28;20079;-67
2022/12/31 08:19:44;;;;;;;0.98;0.82;;;;;;;8.76;63.66;95025.75;5002319;28;20055;-67
2022/12/31 08:22:21;;;;;;;3.85;1.25;;;;;;;7.90;65.69;95037.38;4994713;28;20490;-66
2022/12/31 08:24:51;;;;;;;2.17;1.00;;;;;;;8.19;64.96;95025.25;5003700;28;20057;-67
2022/12/31 08:27:43;;;;;;;1.48;1.20;;;;;;;8.30;64.76;95035.44;5005243;28;20570;-67
2022/12/31 08:30:13;;;;;;;2.25;1.25;;;;;;;8.34;64.50;95035.09;4994586;28;20078;-67
2022/12/31 08:32:45;;;;;;;2.35;1.15;;;;;;;8.35;64.66;95050.84;5000355;28;20688;-68
2022/12/31 08:35:48;;;;;;;4.28;0.93;;;;;;;8.92;62.15;95048.69;5008186;28;20088;-67
2022/12/31 08:38:35;;;;;;;1.27;0.90;;;;;;;7.94;65.18;95043.16;5004347;28;20429;-66
2022/12/31 08:41:19;;;;;;;2.13;1.00;;;;;;;9.05;60.81;95066.66;5002132;28;20632;-68
2022/12/31 08:44:15;;;;;;;4.43;1.20;;;;;;;8.56;62.89;95059.94;5001796;28;20549;-67
2022/12/31 08:47:05;;;;;;;3.03;1.10;;;;;;;8.93;61.87;95052.13;5002379;28;20863;-67
2022/12/31 08:49:32;;;;;;;1.95;1.20;;;;;;;8.41;63.65;95055.44;5005279;28;20084;-68
2022/12/31 08:51:58;;;;;;;6.10;2.30;;;;;;;8.28;63.87;95057.84;4993772;28;20161;-67
2022/12/31 08:54:24;;;;;;;2.33;1.70;;;;;;;8.72;62.62;95068.75;5007488;28;20484;-67
2022/12/31 08:57:05;;;;;;;1.50;1.40;;;;;;;8.75;62.22;95081.69;4998723;28;20048;-68
2022/12/31 08:59:55;;;;;;;2.25;1.10;;;;;;;7.61;65.82;95083.88;5004383;28;20073;-67
2022/12/31 09:02:33;;;;;;;3.60;1.30;;;;;;;7.39;66.99;95099.53;5007155;28;20080;-67
2022/12/31 09:05:11;;;;;;;3.88;1.35;;;;;;;8.03;65.11;95079.22;5007532;28;20457;-67
2022/12/31 09:07:38;;;;;;;1.75;1.02;;;;;;;8.12;65.46;95082.63;5003027;28;20052;-68
2022/12/31 09:10:08;;;;;;;1.55;1.30;;;;;;;7.89;65.22;95113.41;5001019;28;20545;-68
2022/12/31 09:12:41;;;;;;;2.33;0.95;;;;;;;8.36;64.39;95102.88;5000184;28;20084;-68
2022/12/31 09:15:12;;;;;;;1.48;1.02;;;;;;;8.40;64.26;95082.94;5001844;28;20075;-68
2022/12/31 09:17:40;;;;;;;1.48;1.00;;;;;;;8.22;65.40;95107.09;5002246;28;20091;-67
2022/12/31 09:20:11;;;;;;;1.85;1.35;;;;;;;7.97;65.83;95112.56;5002449;28;20053;-68
2022/12/31 09:22:36;;;;;;;2.90;1.15;;;;;;;7.85;66.00;95108.66;5004949;28;20653;-67
2022/12/31 09:25:02;;;;;;;1.65;1.10;;;;;;;7.88;66.60;95105.63;5003700;28;20064;-68
2022/12/31 09:27:31;;;;;;;2.10;1.23;;;;;;;7.92;66.13;95113.06;5005609;28;20132;-67
2022/12/31 09:30:10;;;;;;;3.22;1.23;;;;;;;7.88;66.62;95166.59;5003136;28;20277;-67
2022/12/31 09:32:54;;;;;;;3.92;1.95;;;;;;;7.95;65.57;95111.09;5003995;28;20069;-67
2022/12/31 09:35:45;;;;;;;1.13;0.90;;;;;;;7.90;66.07;95138.09;5003830;28;20260;-67
2022/12/31 09:38:31;;;;;;;1.75;1.13;;;;;;;8.85;63.21;95123.91;5004390;28;20073;-67
2022/12/31 09:41:28;;;;;;;3.58;1.20;;;;;;;8.36;63.97;95126.75;5004231;28;20334;-67
2022/12/31 09:44:04;;;;;;;3.70;1.17;;;;;;;8.51;63.58;95132.13;5004986;28;20064;-67
2022/12/31 09:46:44;;;;;;;1.50;1.05;;;;;;;8.05;65.11;95141.69;5003348;28;20068;-67
2022/12/31 09:49:19;;;;;;;2.22;1.30;;;;;;;7.65;66.94;95131.06;5006593;28;20043;-67
2022/12/31 09:52:17;;;;;;;2.65;1.00;;;;;;;8.27;65.35;95128.63;5004860;28;20527;-67
2022/12/31 09:54:42;;;;;;;;;;;;;;;7.56;67.19;95118.00;5002699;28;20084;-68
2022/12/31 09:57:36;;;;;;;3.93;1.43;;;;;;;8.12;65.15;95114.44;5013847;28;20453;-68
2022/12/31 10:00:16;;;;;;;4.07;1.20;;;;;;;8.50;63.83;95122.50;5014369;28;20048;-66
2022/12/31 10:02:51;;;;;;;3.00;1.58;;;;;;;7.99;65.27;95115.84;4996221;28;20070;-67
2022/12/31 10:05:38;;;;;;;2.85;1.55;;;;;;;8.54;63.57;95113.19;5012613;28;20074;-67
2022/12/31 10:08:27;;;;;;;7.47;1.45;;;;;;;8.35;63.88;95125.09;5008812;28;20058;-67
2022/12/31 10:10:55;;;;;;;4.78;1.52;;;;;;;8.70;63.38;95127.31;5023653;28;20065;-67
2022/12/31 10:13:32;;;;;;;2.20;1.20;;;;;;;8.65;63.05;95153.59;4990667;28;20571;-67
2022/12/31 10:16:19;;;;;;;5.85;1.17;;;;;;;8.47;64.00;95141.41;5004367;28;20044;-67
2022/12/31 10:19:00;;;;;;;3.53;1.42;;;;;;;8.24;64.25;95122.84;5002888;28;20347;-68
2022/12/31 10:22:07;;;;;;;3.00;1.20;;;;;;;8.55;62.96;95122.81;5010493;28;20069;-67
2022/12/31 10:24:48;;;;;;;2.58;1.30;;;;;;;8.38;63.96;95132.72;5001701;28;20074;-66
2022/12/31 10:27:40;;;;;;;3.35;1.40;;;;;;;8.18;64.48;95129.69;5008741;28;20088;-67
2022/12/31 10:30:16;;;;;;;1.80;1.42;;;;;;;8.59;63.36;95156.94;5016061;28;20085;-67
2022/12/31 10:32:43;;;;;;;2.50;1.25;;;;;;;8.54;63.27;95138.91;5004613;28;20059;-67
2022/12/31 10:35:13;;;;;;;2.10;1.02;;;;;;;9.08;61.71;95143.28;5007416;28;20069;-67
2022/12/31 10:38:01;;;;;;;3.05;1.70;;;;;;;9.00;61.26;95147.84;5009590;28;20116;-68
2022/12/31 10:40:50;;;;;;;5.35;1.25;;;;;;;8.47;62.58;95154.69;5003127;28;20055;-67
2022/12/31 10:43:33;;;;;;;5.47;1.40;;;;;;;8.73;62.93;95150.84;5001319;28;20584;-67
2022/12/31 10:46:19;;;;;;;3.05;1.60;;;;;;;8.30;64.08;95161.94;4987494;28;20590;-67
2022/12/31 10:49:00;;;;;;;3.83;1.50;;;;;;;8.00;65.08;95162.59;5004353;28;20450;-67
2022/12/31 10:51:25;;;;;;;4.15;1.67;;;;;;;8.24;64.19;95155.50;5002742;28;20333;-66
2022/12/31 10:54:09;;;;;;;4.30;1.43;;;;;;;8.39;63.71;95160.03;5003383;28;20510;-67
2022/12/31 10:56:37;;;;;;;4.13;1.13;;;;;;;8.44;63.40;95170.97;5006082;28;20228;-67
2022/12/31 10:59:13;;;;;;;3.25;1.20;;;;;;;9.12;61.29;95161.53;5011342;28;20606;-66
2022/12/31 11:01:41;;;;;;;2.00;1.15;;;;;;;8.72;62.06;95212.91;4994309;28;20079;-67
2022/12/31 11:04:25;;;;;;;;;;;;;;;8.99;61.76;95155.00;5009211;28;20478;-67
2022/12/31 11:07:03;;;;;;;3.20;1.30;;;;;;;9.01;61.75;95152.97;4999537;28;20435;-67
2022/12/31 11:09:34;;;;;;;2.20;1.15;;;;;;;8.87;61.90;95159.88;5003220;28;20073;-67
2022/12/31 11:12:34;;;;;;;3.35;1.42;;;;;;;8.66;62.49;95149.91;5006185;28;20112;-67
2022/12/31 11:14:59;;;;;;;3.05;1.60;;;;;;;8.78;61.32;95151.13;5006156;28;20464;-67
2022/12/31 11:17:46;;;;;;;4.47;1.87;;;;;;;9.58;59.31;95163.22;5003195;28;20535;-67
2022/12/31 11:20:33;;;;;;;3.03;1.30;;;;;;;9.56;58.59;95200.63;5001991;28;20046;-66
2022/12/31 11:23:10;;;;;;;5.43;1.47;;;;;;;8.88;61.29;95169.47;5003440;28;20151;-67
2022/12/31 11:25:54;;;;;;;2.33;1.20;;;;;;;9.06;61.07;95150.63;5005854;28;20098;-67
2022/12/31 11:29:01;;;;;;;2.70;1.40;;;;;;;8.90;61.62;95164.00;5003728;28;20105;-67
2022/12/31 11:31:30;;;;;;;3.20;1.50;;;;;;;9.21;60.63;95176.38;5008194;28;20536;-67
2022/12/31 11:34:17;;;;;;;4.55;1.58;;;;;;;8.44;62.64;95177.09;5001096;28;20532;-67
2022/12/31 11:37:02;;;;;;;5.63;1.60;;;;;;;8.53;62.67;95159.28;5002807;28;20064;-66
2022/12/31 11:39:48;;;;;;;3.58;1.70;;;;;;;8.38;62.85;95180.47;5004993;28;20126;-67
2022/12/31 11:42:19;;;;;;;4.47;1.67;;;;;;;8.81;61.26;95182.66;5001553;28;20098;-67
2022/12/31 11:44:54;;;;;;;4.90;1.65;;;;;;;8.20;62.59;95167.47;5003113;28;20060;-66
2022/12/31 11:47:38;;;;;;;4.20;1.63;;;;;;;7.86;63.75;95179.22;4983162;28;20077;-67
2022/12/31 11:50:35;;;;;;;4.22;1.50;;;;;;;8.68;62.07;95161.19;5003147;28;20080;-67
2022/12/31 11:53:03;;;;;;;4.72;1.77;;;;;;;8.84;60.66;95193.94;5001802;28;20082;-67
2022/12/31 11:55:40;;;;;;;4.07;1.30;;;;;;;8.77;60.85;95178.69;5005169;28;20049;-66
2022/12/31 11:58:27;;;;;;;4.40;1.70;;;;;;;8.90;60.05;95204.66;5002290;28;20084;-67
2022/12/31 12:00:55;;;;;;;2.22;1.30;;;;;;;8.71;60.86;95199.81;5011286;28;20036;-67
2022/12/31 12:03:21;;;;;;;3.42;1.50;;;;;;;8.61;60.72;95186.78;5004241;28;20091;-67
2022/12/31 12:05:47;;;;;;;3.53;1.70;;;;;;;8.38;62.38;95185.75;5009046;28;20224;-67
2022/12/31 12:08:12;;;;;;;4.57;1.35;;;;;;;9.49;58.72;95174.97;5010996;28;20421;-67
2022/12/31 12:10:49;;;;;;;2.40;1.38;;;;;;;9.55;58.69;95191.00;5003098;28;20113;-67
2022/12/31 12:13:21;;;;;;;3.05;1.17;;;;;;;9.28;59.66;95171.19;5007574;28;20193;-67
2022/12/31 12:15:52;;;;;;;3.63;1.55;;;;;;;9.08;59.16;95174.34;5004123;28;20052;-67